Time;durP1;ratioP1;P1;durP2;ratioP2;P2;SDS_P1;SDS_P2;PMS_P1;PMS_P2;Temp;Humidity;BMP_temperature;BMP_pressure;BME280_temperature;BME280_humidity;BME280_pressure;Samples;Min_cycle;Max_cycle;Signal;HPM_P1;HPM_P2
2023/10/28 00:00:57;;;;;;;1999.90;999.90;;;11.60;99.90;;;;;;5068066;28;20427;-71
2023/10/28 00:03:24;;;;;;;1999.90;999.90;;;11.40;99.90;;;;;;5068230;28;20427;-70
2023/10/28 00:05:51;;;;;;;1999.90;999.90;;;11.40;99.90;;;;;;5065893;28;20454;-70
2023/10/28 00:08:19;;;;;;;1999.90;999.90;;;11.40;99.90;;;;;;5065574;28;20439;-71
2023/10/28 00:10:48;;;;;;;1999.90;999.90;;;11.40;99.90;;;;;;5067196;28;20442;-70
2023/10/28 00:13:15;;;;;;;1999.90;999.90;;;11.40;99.90;;;;;;5064901;28;20431;-70
2023/10/28 00:15:41;;;;;;;1999.90;999.90;;;11.40;99.90;;;;;;5066215;28;20458;-70
2023/10/28 00:18:09;;;;;;;1999.90;999.90;;;11.40;99.90;;;;;;5063959;28;20446;-70
2023/10/28 00:20:36;;;;;;;1999.90;999.90;;;11.40;99.90;;;;;;5065600;28;20493;-70
2023/10/28 00:23:03;;;;;;;1999.90;999.90;;;11.50;99.90;;;;;;5065454;28;20431;-69
2023/10/28 00:25:32;;;;;;;1999.90;999.90;;;11.50;99.90;;;;;;5066840;28;20458;-70
2023/10/28 00:27:59;;;;;;;1999.90;999.90;;;11.50;99.90;;;;;;5067701;28;20458;-69
2023/10/28 00:30:27;;;;;;;1999.90;999.90;;;11.80;99.90;;;;;;5067249;28;20427;-69
2023/10/28 00:32:58;;;;;;;1999.90;999.90;;;11.70;99.90;;;;;;5063310;28;20451;-70
2023/10/28 00:35:25;;;;;;;1999.90;999.90;;;11.90;99.90;;;;;;5065389;28;20783;-70
2023/10/28 00:37:52;;;;;;;1999.90;999.90;;;11.90;99.90;;;;;;5066924;28;20431;-69
2023/10/28 00:40:19;;;;;;;1999.90;999.90;;;11.80;99.90;;;;;;5064178;28;20431;-70
2023/10/28 00:42:47;;;;;;;1999.90;999.90;;;11.90;99.90;;;;;;5064098;28;20532;-70
2023/10/28 00:45:15;;;;;;;1999.90;999.90;;;11.80;99.90;;;;;;5064042;28;20428;-70
2023/10/28 00:47:44;;;;;;;1999.90;999.90;;;11.50;99.90;;;;;;5069428;28;20435;-70
2023/10/28 00:50:12;;;;;;;1999.90;999.90;;;11.30;99.90;;;;;;5071513;28;20472;-69
2023/10/28 00:52:41;;;;;;;1999.90;999.90;;;11.30;99.90;;;;;;5069309;28;21183;-70
2023/10/28 00:55:10;;;;;;;1999.90;999.90;;;11.40;99.90;;;;;;5070889;28;20425;-69
2023/10/28 00:57:37;;;;;;;1999.90;999.90;;;11.30;99.90;;;;;;5070413;28;20466;-69
2023/10/28 01:00:07;;;;;;;1999.90;999.90;;;11.10;99.90;;;;;;5071044;28;20443;-69
2023/10/28 01:02:35;;;;;;;1999.90;999.90;;;11.20;99.90;;;;;;5068844;28;20431;-70
2023/10/28 01:05:02;;;;;;;1999.90;999.90;;;11.20;99.90;;;;;;5069424;28;20439;-70
2023/10/28 01:07:29;;;;;;;1999.90;999.90;;;11.20;99.90;;;;;;5071026;28;20466;-70
2023/10/28 01:09:56;;;;;;;1999.90;999.90;;;11.40;99.90;;;;;;5070348;28;20431;-70
2023/10/28 01:12:23;;;;;;;1999.90;999.90;;;11.40;99.90;;;;;;5070054;28;20435;-70
2023/10/28 01:14:50;;;;;;;1999.90;999.90;;;11.50;99.90;;;;;;5071087;28;20424;-70
2023/10/28 01:17:21;;;;;;;1999.90;999.90;;;11.40;99.90;;;;;;5069785;28;20432;-70
2023/10/28 01:19:47;;;;;;;1999.90;999.90;;;11.30;99.90;;;;;;5068682;28;20538;-69
2023/10/28 01:22:16;;;;;;;1999.90;999.90;;;11.30;99.90;;;;;;5068425;28;20435;-70
2023/10/28 01:24:42;;;;;;;1999.90;999.90;;;11.30;99.90;;;;;;5067037;28;20440;-70
2023/10/28 01:27:09;;;;;;;1999.90;999.90;;;11.20;99.90;;;;;;5069585;28;20439;-70
2023/10/28 01:29:36;;;;;;;1999.90;999.90;;;11.10;99.90;;;;;;5068198;28;20536;-69
2023/10/28 01:32:03;;;;;;;1999.90;999.90;;;11.10;99.90;;;;;;5066689;28;20775;-70
2023/10/28 01:34:31;;;;;;;1999.90;999.90;;;11.10;99.90;;;;;;5070657;28;20436;-70
2023/10/28 01:36:57;;;;;;;1999.90;999.90;;;11.00;99.90;;;;;;5070844;28;20428;-69
2023/10/28 01:39:26;;;;;;;1999.90;999.90;;;10.90;99.90;;;;;;5067387;28;20428;-70
2023/10/28 01:41:52;;;;;;;1999.90;999.90;;;10.90;99.90;;;;;;5069481;28;20892;-69
2023/10/28 01:44:19;;;;;;;1999.90;999.90;;;10.80;99.90;;;;;;5064514;28;20493;-70
2023/10/28 01:46:46;;;;;;;1999.90;999.90;;;10.70;99.90;;;;;;5069784;28;20427;-69
2023/10/28 01:49:13;;;;;;;1999.90;999.90;;;10.70;99.90;;;;;;5065162;28;20450;-70
2023/10/28 01:51:40;;;;;;;1999.90;999.90;;;10.70;99.90;;;;;;5069455;28;20435;-70
2023/10/28 01:54:07;;;;;;;1999.90;999.90;;;10.50;99.90;;;;;;5070363;28;20428;-70
2023/10/28 01:56:35;;;;;;;1999.90;999.90;;;10.40;99.90;;;;;;5063337;28;20431;-70
2023/10/28 01:59:02;;;;;;;1999.90;999.90;;;10.40;99.90;;;;;;5067985;28;20441;-70
2023/10/28 02:01:29;;;;;;;1999.90;999.90;;;10.50;99.90;;;;;;5068716;28;20440;-69
2023/10/28 02:03:56;;;;;;;1999.90;999.90;;;10.40;99.90;;;;;;5069725;28;20423;-70
2023/10/28 02:06:22;;;;;;;1999.90;999.90;;;10.50;99.90;;;;;;5067995;28;20431;-70
2023/10/28 02:08:50;;;;;;;1999.90;999.90;;;10.80;99.90;;;;;;5062186;28;20939;-70
2023/10/28 02:11:16;;;;;;;1999.90;999.90;;;10.50;99.90;;;;;;5069297;28;20421;-70
2023/10/28 02:13:45;;;;;;;1999.90;999.90;;;10.60;99.90;;;;;;5066259;28;20428;-70
2023/10/28 02:16:12;;;;;;;1999.90;999.90;;;10.70;99.90;;;;;;5067787;28;20459;-70
2023/10/28 02:18:39;;;;;;;1999.90;999.90;;;10.60;99.90;;;;;;5067918;28;20528;-69
2023/10/28 02:21:06;;;;;;;1999.90;999.90;;;10.70;99.90;;;;;;5069183;28;20801;-70
2023/10/28 02:23:32;;;;;;;1999.90;999.90;;;10.70;99.90;;;;;;5061596;28;20431;-69
2023/10/28 02:25:59;;;;;;;1999.90;999.90;;;10.60;99.90;;;;;;5068825;28;20925;-69
2023/10/28 02:28:26;;;;;;;1999.90;999.90;;;10.60;99.90;;;;;;5067595;28;20438;-70
2023/10/28 02:30:54;;;;;;;1999.90;999.90;;;10.60;99.90;;;;;;5069447;28;20436;-70
2023/10/28 02:33:20;;;;;;;1999.90;999.90;;;10.60;99.90;;;;;;5066959;28;20438;-70
2023/10/28 02:35:47;;;;;;;1999.90;999.90;;;10.60;99.90;;;;;;5068766;28;20500;-70
2023/10/28 02:38:15;;;;;;;1999.90;999.90;;;10.60;99.90;;;;;;5064954;28;20451;-70
2023/10/28 02:40:46;;;;;;;1999.90;999.90;;;10.60;99.90;;;;;;5069197;28;20436;-70
2023/10/28 02:43:13;;;;;;;1999.90;999.90;;;10.50;99.90;;;;;;5066594;28;20434;-70
2023/10/28 02:45:40;;;;;;;1999.90;999.90;;;10.50;99.90;;;;;;5067632;28;20437;-69
2023/10/28 02:48:08;;;;;;;1999.90;999.90;;;10.50;99.90;;;;;;5063967;28;20444;-70
2023/10/28 02:50:36;;;;;;;1999.90;999.90;;;10.50;99.90;;;;;;5068416;28;20775;-70
2023/10/28 02:53:03;;;;;;;1999.90;999.90;;;10.40;99.90;;;;;;5068325;28;20424;-69
2023/10/28 02:55:30;;;;;;;1999.90;999.90;;;10.50;99.90;;;;;;5069158;28;20431;-68
2023/10/28 02:57:56;;;;;;;1999.90;999.90;;;10.60;99.90;;;;;;5067193;28;20799;-70
2023/10/28 03:00:23;;;;;;;1999.90;999.90;;;10.60;99.90;;;;;;5069208;28;20442;-68
2023/10/28 03:02:52;;;;;;;1999.90;999.90;;;10.70;99.90;;;;;;5060917;28;20427;-69
2023/10/28 03:05:22;;;;;;;1999.90;999.90;;;10.40;99.90;;;;;;5068971;28;20427;-70
2023/10/28 03:07:49;;;;;;;1999.90;999.90;;;10.30;99.90;;;;;;5066773;28;20501;-69
2023/10/28 03:10:16;;;;;;;1999.90;999.90;;;9.90;99.90;;;;;;5064775;28;20439;-69
2023/10/28 03:12:42;;;;;;;1999.90;999.90;;;9.80;99.90;;;;;;5067643;28;20435;-69
2023/10/28 03:15:10;;;;;;;1999.90;999.90;;;9.70;99.90;;;;;;5062156;28;20918;-70
2023/10/28 03:17:38;;;;;;;1999.90;999.90;;;9.60;99.90;;;;;;5062766;28;20427;-69
2023/10/28 03:20:08;;;;;;;1999.90;999.90;;;9.60;99.90;;;;;;5066868;28;20415;-69
2023/10/28 03:22:36;;;;;;;1999.90;999.90;;;9.60;99.90;;;;;;5076876;28;20453;-69
2023/10/28 03:25:04;;;;;;;1999.90;999.90;;;9.50;99.90;;;;;;5082622;28;20447;-70
2023/10/28 03:27:32;;;;;;;1999.90;999.90;;;9.40;99.90;;;;;;5083748;28;20427;-70
2023/10/28 03:29:58;;;;;;;1999.90;999.90;;;9.40;99.90;;;;;;5081286;28;21182;-71
2023/10/28 03:32:25;;;;;;;1999.90;999.90;;;9.30;99.90;;;;;;5071894;28;20432;-70
2023/10/28 03:34:52;;;;;;;1999.90;999.90;;;9.30;99.90;;;;;;5068980;28;20427;-69
2023/10/28 03:37:19;;;;;;;1999.90;999.90;;;9.30;99.90;;;;;;5068053;28;20440;-70
2023/10/28 03:39:47;;;;;;;1999.90;999.90;;;9.30;99.90;;;;;;5066063;28;20463;-69
2023/10/28 03:42:14;;;;;;;1999.90;999.90;;;9.30;99.90;;;;;;5068028;28;20486;-69
2023/10/28 03:44:41;;;;;;;1999.90;999.90;;;9.60;99.90;;;;;;5066181;28;20880;-70
2023/10/28 03:47:07;;;;;;;1999.90;999.90;;;9.40;99.90;;;;;;5063555;28;20431;-69
2023/10/28 03:49:34;;;;;;;1999.90;999.90;;;9.40;99.90;;;;;;5066480;28;20431;-69
2023/10/28 03:52:01;;;;;;;1999.90;999.90;;;9.30;99.90;;;;;;5067282;28;20437;-70
2023/10/28 03:54:29;;;;;;;1999.90;999.90;;;9.30;99.90;;;;;;5067111;28;20431;-70
2023/10/28 03:56:57;;;;;;;1999.90;999.90;;;9.30;99.90;;;;;;5066547;28;20427;-69
2023/10/28 03:59:23;;;;;;;1999.90;999.90;;;9.50;99.90;;;;;;5066887;28;20438;-69
2023/10/28 04:01:50;;;;;;;1999.90;999.90;;;9.40;99.90;;;;;;5066731;28;20434;-69
2023/10/28 04:04:17;;;;;;;1999.90;999.90;;;9.30;99.90;;;;;;5067128;28;20424;-70
2023/10/28 04:06:44;;;;;;;1999.90;999.90;;;9.40;99.90;;;;;;5057747;28;20439;-70
2023/10/28 04:09:14;;;;;;;1999.90;999.90;;;9.30;99.90;;;;;;5066081;28;20442;-70
2023/10/28 04:11:40;;;;;;;1999.90;999.90;;;9.20;99.90;;;;;;5065793;28;20959;-70
2023/10/28 04:14:08;;;;;;;1999.90;999.90;;;9.20;99.90;;;;;;5064351;28;20567;-70
2023/10/28 04:16:35;;;;;;;1999.90;999.90;;;9.20;99.90;;;;;;5066323;28;20458;-70
2023/10/28 04:19:02;;;;;;;1999.90;999.90;;;9.30;99.90;;;;;;5066281;28;20427;-69
2023/10/28 04:21:29;;;;;;;1999.90;999.90;;;9.20;99.90;;;;;;5069827;28;20794;-70
2023/10/28 04:23:55;;;;;;;1999.90;999.90;;;9.10;99.90;;;;;;5068983;28;20513;-70
2023/10/28 04:26:22;;;;;;;1999.90;999.90;;;9.30;99.90;;;;;;5068391;28;20425;-69
2023/10/28 04:28:49;;;;;;;1999.90;999.90;;;9.30;99.90;;;;;;5071832;28;20497;-70
2023/10/28 04:31:17;;;;;;;1999.90;999.90;;;9.20;99.90;;;;;;5071353;28;20435;-70
2023/10/28 04:33:44;;;;;;;1999.90;999.90;;;9.20;99.90;;;;;;5063274;28;20430;-70
2023/10/28 04:36:11;;;;;;;1999.90;999.90;;;9.20;99.90;;;;;;5065413;28;20722;-70
2023/10/28 04:38:40;;;;;;;1999.90;999.90;;;9.20;99.90;;;;;;5067363;28;20431;-70
2023/10/28 04:41:08;;;;;;;1999.90;999.90;;;9.30;99.90;;;;;;5071965;28;20643;-69
2023/10/28 04:43:35;;;;;;;1999.90;999.90;;;9.30;99.90;;;;;;5071010;28;20472;-69
2023/10/28 04:46:01;;;;;;;1999.90;999.90;;;9.40;99.90;;;;;;5071674;28;20435;-70
2023/10/28 04:48:29;;;;;;;1999.90;999.90;;;9.40;99.90;;;;;;5069447;28;20431;-70
2023/10/28 04:50:56;;;;;;;1999.90;999.90;;;9.50;99.90;;;;;;5068912;28;20432;-70
2023/10/28 04:53:23;;;;;;;1999.90;999.90;;;9.40;99.90;;;;;;5068633;28;20435;-70
2023/10/28 04:55:50;;;;;;;1999.90;999.90;;;9.50;99.90;;;;;;5072067;28;20431;-68
2023/10/28 04:58:17;;;;;;;1999.90;999.90;;;9.60;99.90;;;;;;5063792;28;20437;-69
2023/10/28 05:00:45;;;;;;;1999.90;999.90;;;9.60;99.90;;;;;;5066665;28;20439;-70
2023/10/28 05:03:12;;;;;;;1999.90;999.90;;;9.60;99.90;;;;;;5065410;28;20441;-68
2023/10/28 05:05:40;;;;;;;1999.90;999.90;;;9.60;99.90;;;;;;5069187;28;20514;-70
2023/10/28 05:08:08;;;;;;;1999.90;999.90;;;9.70;99.90;;;;;;5071172;28;20940;-70
2023/10/28 05:10:34;;;;;;;1999.90;999.90;;;9.60;99.90;;;;;;5067363;28;20432;-69
2023/10/28 05:13:01;;;;;;;1999.90;999.90;;;9.70;99.90;;;;;;5061242;28;20429;-69
2023/10/28 05:15:28;;;;;;;1999.90;999.90;;;9.80;99.90;;;;;;5067534;28;20428;-70
2023/10/28 05:17:55;;;;;;;1999.90;999.90;;;9.90;99.90;;;;;;5068325;28;20480;-70
2023/10/28 05:20:22;;;;;;;1999.90;999.90;;;9.90;99.90;;;;;;5066547;28;20454;-70
2023/10/28 05:22:50;;;;;;;1999.90;999.90;;;10.00;99.90;;;;;;5071148;28;20427;-70
2023/10/28 05:25:17;;;;;;;1999.90;999.90;;;10.00;99.90;;;;;;5064804;28;20768;-69
2023/10/28 05:27:43;;;;;;;1999.90;999.90;;;10.10;99.90;;;;;;5068862;28;20831;-70
2023/10/28 05:30:12;;;;;;;1999.90;999.90;;;10.20;99.90;;;;;;5067151;28;20428;-70
2023/10/28 05:32:39;;;;;;;1999.90;999.90;;;10.10;99.90;;;;;;5069369;28;20438;-69
2023/10/28 05:35:08;;;;;;;1999.90;999.90;;;10.10;99.90;;;;;;5063570;28;20507;-70
2023/10/28 05:37:35;;;;;;;1999.90;999.90;;;9.90;99.90;;;;;;5069837;28;20456;-70
2023/10/28 05:40:03;;;;;;;1999.90;999.90;;;10.00;99.90;;;;;;5069603;28;20427;-70
2023/10/28 05:42:29;;;;;;;1999.90;999.90;;;9.90;99.90;;;;;;5070101;28;20431;-69
2023/10/28 05:44:56;;;;;;;1999.90;999.90;;;9.90;99.90;;;;;;5070216;28;20424;-69
2023/10/28 05:47:23;;;;;;;1999.90;999.90;;;9.90;99.90;;;;;;5069462;28;20430;-70
2023/10/28 05:49:50;;;;;;;1999.90;999.90;;;9.90;99.90;;;;;;5069227;28;20439;-69
2023/10/28 05:52:20;;;;;;;1999.90;999.90;;;10.20;99.90;;;;;;5071353;28;20500;-70
2023/10/28 05:54:46;;;;;;;1999.90;999.90;;;10.30;99.90;;;;;;5070636;28;20468;-69
2023/10/28 05:57:14;;;;;;;1999.90;999.90;;;10.00;99.90;;;;;;5069359;28;20884;-70
2023/10/28 05:59:41;;;;;;;1999.90;999.90;;;10.40;99.90;;;;;;5067781;28;20860;-70
2023/10/28 06:02:08;;;;;;;1999.90;999.90;;;10.30;99.90;;;;;;5069937;28;20452;-69
2023/10/28 06:04:34;;;;;;;1999.90;999.90;;;10.20;99.90;;;;;;5057990;28;20431;-70
2023/10/28 06:07:01;;;;;;;1999.90;999.90;;;10.10;99.90;;;;;;5054917;28;20431;-70
2023/10/28 06:09:28;;;;;;;1999.90;999.90;;;10.00;99.90;;;;;;5058383;28;20440;-69
2023/10/28 06:11:56;;;;;;;1999.90;999.90;;;9.90;99.90;;;;;;5062970;28;20442;-70
2023/10/28 06:14:24;;;;;;;1999.90;999.90;;;9.70;99.90;;;;;;5065110;28;21101;-70
2023/10/28 06:16:51;;;;;;;1999.90;999.90;;;9.80;99.90;;;;;;5067554;28;20442;-70
2023/10/28 06:19:21;;;;;;;1999.90;999.90;;;9.80;99.90;;;;;;5056113;28;20807;-70
2023/10/28 06:21:48;;;;;;;1999.90;999.90;;;9.90;99.90;;;;;;5060063;28;20934;-70
2023/10/28 06:24:15;;;;;;;1999.90;999.90;;;10.10;99.90;;;;;;5062917;28;20917;-69
2023/10/28 06:26:45;;;;;;;1999.90;999.90;;;10.30;99.90;;;;;;5067236;28;20437;-70
2023/10/28 06:29:12;;;;;;;1999.90;999.90;;;10.20;99.90;;;;;;5067002;28;20497;-70
2023/10/28 06:31:40;;;;;;;1999.90;999.90;;;10.30;99.90;;;;;;5057636;28;20433;-70
2023/10/28 06:34:07;;;;;;;1999.90;999.90;;;10.20;99.90;;;;;;5060656;28;20805;-69
2023/10/28 06:36:34;;;;;;;1999.90;999.90;;;10.10;99.90;;;;;;5063929;28;20433;-69
2023/10/28 06:39:01;;;;;;;1999.90;999.90;;;10.30;99.90;;;;;;5067632;28;20431;-70
2023/10/28 06:41:28;;;;;;;1999.90;999.90;;;10.20;99.90;;;;;;5063376;28;20429;-70
2023/10/28 06:43:54;;;;;;;1999.90;999.90;;;10.20;99.90;;;;;;5063458;28;20426;-70
2023/10/28 06:46:21;;;;;;;1999.90;999.90;;;10.10;99.90;;;;;;5061827;28;20431;-70
2023/10/28 06:48:49;;;;;;;1999.90;999.90;;;10.20;99.90;;;;;;5065419;28;20433;-70
2023/10/28 06:51:16;;;;;;;1999.90;999.90;;;10.10;99.90;;;;;;5068569;28;20430;-70
2023/10/28 06:53:43;;;;;;;1999.90;999.90;;;10.20;99.90;;;;;;5057849;28;20841;-70
2023/10/28 06:56:11;;;;;;;1999.90;999.90;;;10.20;99.90;;;;;;5059775;28;20495;-70
2023/10/28 06:58:38;;;;;;;1999.90;999.90;;;10.20;99.90;;;;;;5060618;28;20435;-70
2023/10/28 07:01:05;;;;;;;1999.90;999.90;;;10.30;99.90;;;;;;5065590;28;20432;-70
2023/10/28 07:03:32;;;;;;;1999.90;999.90;;;10.30;99.90;;;;;;5062406;28;20433;-69
2023/10/28 07:06:00;;;;;;;1999.90;999.90;;;10.30;99.90;;;;;;5057276;28;20427;-69
2023/10/28 07:08:26;;;;;;;1999.90;999.90;;;10.50;99.90;;;;;;5062689;28;20443;-70
2023/10/28 07:10:53;;;;;;;1999.90;999.90;;;10.20;99.90;;;;;;5063394;28;20432;-70
2023/10/28 07:13:20;;;;;;;1999.90;999.90;;;10.20;99.90;;;;;;5063968;28;20423;-70
2023/10/28 07:15:47;;;;;;;1999.90;999.90;;;10.30;99.90;;;;;;5062870;28;20919;-70
2023/10/28 07:18:14;;;;;;;1999.90;999.90;;;10.40;99.90;;;;;;5061300;28;20428;-69
2023/10/28 07:20:41;;;;;;;1999.90;999.90;;;10.30;99.90;;;;;;5064549;28;20429;-70
2023/10/28 07:23:09;;;;;;;1999.90;999.90;;;10.30;99.90;;;;;;5064901;28;20428;-69
2023/10/28 07:25:35;;;;;;;1999.90;999.90;;;10.50;99.90;;;;;;5053848;28;20444;-70
2023/10/28 07:28:04;;;;;;;1999.90;999.90;;;10.80;99.90;;;;;;5054875;28;20423;-69
2023/10/28 07:30:30;;;;;;;1999.90;999.90;;;10.70;99.90;;;;;;5058456;28;20803;-68
2023/10/28 07:32:57;;;;;;;1999.90;999.90;;;10.60;99.90;;;;;;5064116;28;20437;-70
2023/10/28 07:35:24;;;;;;;1999.90;999.90;;;10.50;99.90;;;;;;5071487;28;20431;-70
2023/10/28 07:37:51;;;;;;;1999.90;999.90;;;10.70;99.90;;;;;;5063944;28;20431;-69
2023/10/28 07:40:19;;;;;;;1999.90;999.90;;;10.90;99.90;;;;;;5054265;28;20436;-69
2023/10/28 07:42:46;;;;;;;1999.90;999.90;;;11.00;99.90;;;;;;5058694;28;20515;-69
2023/10/28 07:45:13;;;;;;;1999.90;999.90;;;10.90;99.90;;;;;;5066191;28;20423;-69
2023/10/28 07:47:39;;;;;;;1999.90;999.90;;;10.90;99.90;;;;;;5064598;28;20435;-70
2023/10/28 07:50:07;;;;;;;1999.90;999.90;;;10.90;99.90;;;;;;5067049;28;20434;-70
2023/10/28 07:52:34;;;;;;;1999.90;999.90;;;10.90;99.90;;;;;;5058239;28;20852;-70
2023/10/28 07:55:04;;;;;;;1999.90;999.90;;;10.90;99.90;;;;;;5061040;28;20428;-70
2023/10/28 07:57:32;;;;;;;1999.90;999.90;;;10.90;99.90;;;;;;5063726;28;20439;-69
2023/10/28 07:59:58;;;;;;;1999.90;999.90;;;11.20;99.90;;;;;;5061395;28;21404;-70
2023/10/28 08:02:25;;;;;;;1999.90;999.90;;;11.10;99.90;;;;;;5064386;28;20456;-70
2023/10/28 08:04:54;;;;;;;1999.90;999.90;;;11.30;99.90;;;;;;5062180;28;20798;-69
2023/10/28 08:07:21;;;;;;;1999.90;999.90;;;11.00;99.90;;;;;;5061789;28;20438;-70
2023/10/28 08:09:47;;;;;;;1999.90;999.90;;;10.80;99.90;;;;;;5059517;28;20435;-70
2023/10/28 08:12:15;;;;;;;1999.90;999.90;;;11.20;99.90;;;;;;5066962;28;20928;-69
2023/10/28 08:14:44;;;;;;;1999.90;999.90;;;10.90;99.90;;;;;;5060898;28;20461;-70
2023/10/28 08:17:10;;;;;;;1999.90;999.90;;;10.90;99.90;;;;;;5058079;28;20436;-70
2023/10/28 08:19:37;;;;;;;1999.90;999.90;;;11.00;99.90;;;;;;5063576;28;20423;-70
2023/10/28 08:22:04;;;;;;;1999.90;999.90;;;11.20;99.90;;;;;;5064393;28;20440;-70
2023/10/28 08:24:31;;;;;;;1999.90;999.90;;;11.30;99.90;;;;;;5068745;28;20430;-68
2023/10/28 08:26:57;;;;;;;1999.90;999.90;;;11.00;99.90;;;;;;5061943;28;20793;-70
2023/10/28 08:29:25;;;;;;;1999.90;999.90;;;11.10;99.90;;;;;;5057489;28;20441;-70
2023/10/28 08:31:54;;;;;;;1999.90;999.90;;;11.40;99.90;;;;;;5066603;28;20431;-70
2023/10/28 08:34:20;;;;;;;1999.90;999.90;;;11.40;99.90;;;;;;5065256;28;20431;-69
2023/10/28 08:36:47;;;;;;;1999.90;999.90;;;11.60;99.90;;;;;;5065402;28;20995;-70
2023/10/28 08:39:14;;;;;;;1999.90;999.90;;;11.60;99.90;;;;;;5057550;28;20437;-70
2023/10/28 08:41:42;;;;;;;1999.90;999.90;;;11.60;99.90;;;;;;5062414;28;20427;-69
2023/10/28 08:44:12;;;;;;;1999.90;999.90;;;11.60;99.90;;;;;;5065975;28;20450;-70
2023/10/28 08:46:39;;;;;;;1999.90;999.90;;;11.50;99.90;;;;;;5062356;28;20428;-70
2023/10/28 08:49:09;;;;;;;1999.90;999.90;;;11.70;99.90;;;;;;5062894;28;20436;-70
2023/10/28 08:51:39;;;;;;;1999.90;999.90;;;11.70;99.90;;;;;;5058078;28;20429;-69
2023/10/28 08:54:07;;;;;;;1999.90;999.90;;;11.50;99.90;;;;;;5063239;28;20427;-69
2023/10/28 08:56:36;;;;;;;1999.90;999.90;;;11.80;99.90;;;;;;5062735;28;20423;-69
2023/10/28 08:59:04;;;;;;;1999.90;999.90;;;11.90;99.90;;;;;;5062502;28;20823;-69
2023/10/28 09:01:31;;;;;;;1999.90;999.90;;;11.90;99.90;;;;;;5062972;28;20437;-69
2023/10/28 09:04:01;;;;;;;1999.90;999.90;;;12.20;99.90;;;;;;5064693;28;21085;-69
2023/10/28 09:06:30;;;;;;;1999.90;999.90;;;12.30;99.90;;;;;;5065289;28;20424;-68
2023/10/28 09:08:57;;;;;;;1999.90;999.90;;;11.90;99.90;;;;;;5068877;28;20506;-68
2023/10/28 09:11:24;;;;;;;1999.90;999.90;;;12.00;99.90;;;;;;5071101;28;20437;-69
2023/10/28 09:13:51;;;;;;;1999.90;999.90;;;12.00;99.90;;;;;;5071417;28;20436;-69
2023/10/28 09:16:18;;;;;;;1999.90;999.90;;;12.20;99.90;;;;;;5067190;28;20427;-69
2023/10/28 09:18:45;;;;;;;1999.90;999.90;;;12.30;99.90;;;;;;5067729;28;20430;-68
2023/10/28 09:21:13;;;;;;;1999.90;999.90;;;12.60;99.90;;;;;;5069198;28;20435;-68
2023/10/28 09:23:42;;;;;;;1999.90;999.90;;;12.90;99.90;;;;;;5070322;28;20470;-69
2023/10/28 09:26:09;;;;;;;1999.90;999.90;;;13.00;99.90;;;;;;5069367;28;20427;-69
2023/10/28 09:28:43;;;;;;;1999.90;999.90;;;13.30;99.90;;;;;;5079019;28;20428;-69
2023/10/28 09:31:09;;;;;;;1999.90;999.90;;;12.90;99.90;;;;;;5077157;28;20427;-69
2023/10/28 09:33:37;;;;;;;1999.90;999.90;;;12.90;99.90;;;;;;5081808;28;20428;-69
2023/10/28 09:36:06;;;;;;;1999.90;999.90;;;12.90;99.90;;;;;;5071200;28;20514;-69
2023/10/28 09:38:33;;;;;;;1999.90;999.90;;;12.90;99.90;;;;;;5069658;28;20813;-69
2023/10/28 09:41:03;;;;;;;1999.90;999.90;;;12.70;99.90;;;;;;5067558;28;20512;-69
2023/10/28 09:43:32;;;;;;;1999.90;999.90;;;12.60;99.90;;;;;;5069392;28;20427;-69
2023/10/28 09:45:59;;;;;;;1999.90;999.90;;;12.70;99.90;;;;;;5063093;28;20431;-69
2023/10/28 09:48:32;;;;;;;1999.90;999.90;;;12.90;99.90;;;;;;5069539;28;20440;-69
2023/10/28 09:50:59;;;;;;;1999.90;999.90;;;13.20;99.90;;;;;;5067393;28;20424;-68
2023/10/28 09:53:32;;;;;;;1999.90;999.90;;;13.50;99.90;;;;;;5068980;28;20801;-69
2023/10/28 09:55:58;;;;;;;1999.90;999.90;;;13.50;99.90;;;;;;5067107;28;20458;-69
2023/10/28 09:58:31;;;;;;;1999.90;999.90;;;13.60;99.90;;;;;;5066343;28;20508;-69
2023/10/28 10:01:07;;;;;;;1999.90;999.90;;;13.80;99.90;;;;;;5067082;28;20434;-69
2023/10/28 10:03:46;;;;;;;1999.90;999.90;;;13.90;99.90;;;;;;5068378;28;20435;-69
2023/10/28 10:06:13;;;;;;;1999.90;999.90;;;13.80;99.90;;;;;;5067412;28;20500;-68
2023/10/28 10:08:48;;;;;;;1999.90;999.90;;;14.00;99.90;;;;;;5070220;28;20432;-69
2023/10/28 10:11:21;;;;;;;1999.90;999.90;;;14.10;99.90;;;;;;5067722;28;20431;-69
2023/10/28 10:13:49;;;;;;;1999.90;999.90;;;14.00;99.90;;;;;;5067808;28;20817;-69
2023/10/28 10:16:35;;;;;;;1999.90;999.90;;;14.10;99.90;;;;;;5067473;28;20435;-68
2023/10/28 10:19:10;;;;;;;1999.90;999.90;;;14.20;99.90;;;;;;5065199;28;20454;-69
2023/10/28 10:21:37;;;;;;;1999.90;999.90;;;14.20;99.90;;;;;;5069937;28;20439;-69
2023/10/28 10:24:05;;;;;;;1999.90;999.90;;;14.20;99.90;;;;;;5068922;28;20439;-69
2023/10/28 10:26:33;;;;;;;1999.90;999.90;;;14.20;99.90;;;;;;5062393;28;20435;-67
2023/10/28 10:29:03;;;;;;;1999.90;999.90;;;14.30;99.90;;;;;;5065790;28;20846;-68
2023/10/28 10:31:31;;;;;;;1999.90;999.90;;;14.50;99.90;;;;;;5069602;28;20488;-68
2023/10/28 10:34:03;;;;;;;1999.90;999.90;;;14.10;99.90;;;;;;5066279;28;20451;-68
2023/10/28 10:36:35;;;;;;;1999.90;999.90;;;14.00;99.90;;;;;;5062809;28;20945;-68
2023/10/28 10:39:14;;;;;;;1999.90;999.90;;;14.00;99.90;;;;;;5065773;28;20428;-69
2023/10/28 10:41:41;;;;;;;1999.90;999.90;;;14.20;99.90;;;;;;5069654;28;20468;-69
2023/10/28 10:44:34;;;;;;;1999.90;999.90;;;14.30;99.90;;;;;;5069650;28;20435;-68
2023/10/28 10:47:04;;;;;;;1999.90;999.90;;;14.50;99.90;;;;;;5063975;28;20433;-69
2023/10/28 10:49:32;;;;;;;1999.90;999.90;;;14.40;99.90;;;;;;5068981;28;20427;-69
2023/10/28 10:52:00;;;;;;;1999.90;999.90;;;14.40;99.90;;;;;;5068486;28;20442;-69
2023/10/28 10:54:31;;;;;;;1999.90;999.90;;;14.80;99.90;;;;;;5063292;28;20428;-67
2023/10/28 10:56:58;;;;;;;1999.90;999.90;;;14.90;99.90;;;;;;5066990;28;20432;-69
2023/10/28 10:59:25;;;;;;;1999.90;999.90;;;14.80;99.90;;;;;;5066558;28;20979;-69
2023/10/28 11:01:53;;;;;;;1999.90;999.90;;;14.70;99.90;;;;;;5068186;28;20438;-69
2023/10/28 11:04:20;;;;;;;1999.90;999.90;;;14.70;99.90;;;;;;5068392;28;20502;-68
2023/10/28 11:06:47;;;;;;;1999.90;999.90;;;14.70;99.90;;;;;;5065114;28;21004;-69
2023/10/28 11:09:15;;;;;;;1999.90;999.90;;;14.60;99.90;;;;;;5069457;28;20435;-66
2023/10/28 11:11:42;;;;;;;1999.90;999.90;;;14.50;99.90;;;;;;5068336;28;20489;-69
2023/10/28 11:14:09;;;;;;;1999.90;999.90;;;14.40;99.90;;;;;;5066262;28;20427;-69
2023/10/28 11:16:38;;;;;;;1999.90;999.90;;;14.40;99.90;;;;;;5064678;28;20438;-69
2023/10/28 11:19:07;;;;;;;1999.90;999.90;;;14.20;99.90;;;;;;5065238;28;20447;-66
2023/10/28 11:21:34;;;;;;;1999.90;999.90;;;14.30;99.90;;;;;;5063665;28;20477;-69
2023/10/28 11:24:01;;;;;;;1999.90;999.90;;;14.30;99.90;;;;;;5065193;28;20438;-69
2023/10/28 11:26:29;;;;;;;1999.90;999.90;;;14.20;99.90;;;;;;5065570;28;20425;-68
2023/10/28 11:28:59;;;;;;;1999.90;999.90;;;14.10;99.90;;;;;;5066046;28;20958;-69
2023/10/28 11:31:28;;;;;;;1999.90;999.90;;;14.10;99.90;;;;;;5065580;28;20459;-69
2023/10/28 11:33:56;;;;;;;1999.90;999.90;;;14.20;99.90;;;;;;5067053;28;20431;-69
2023/10/28 11:36:25;;;;;;;1999.90;999.90;;;14.20;99.90;;;;;;5068517;28;20427;-69
2023/10/28 11:38:52;;;;;;;1999.90;999.90;;;14.00;99.90;;;;;;5063110;28;20439;-69
2023/10/28 11:41:21;;;;;;;1999.90;999.90;;;14.00;99.90;;;;;;5056705;28;20440;-69
2023/10/28 11:43:49;;;;;;;1999.90;999.90;;;14.00;99.90;;;;;;5059099;28;20787;-69
2023/10/28 11:46:16;;;;;;;1999.90;999.90;;;14.00;99.90;;;;;;5060931;28;20429;-69
2023/10/28 11:48:45;;;;;;;1999.90;999.90;;;14.10;99.90;;;;;;5066037;28;20435;-69
2023/10/28 11:51:12;;;;;;;1999.90;999.90;;;14.10;99.90;;;;;;5065472;28;20477;-69
2023/10/28 11:53:44;;;;;;;1999.90;999.90;;;14.00;99.90;;;;;;5061972;28;20435;-69
2023/10/28 11:56:11;;;;;;;1999.90;999.90;;;14.00;99.90;;;;;;5058050;28;20425;-69
2023/10/28 11:58:38;;;;;;;1999.90;999.90;;;14.10;99.90;;;;;;5064638;28;20925;-69
2023/10/28 12:01:05;;;;;;;1999.90;999.90;;;14.00;99.90;;;;;;5067461;28;20436;-69
2023/10/28 12:03:33;;;;;;;1999.90;999.90;;;13.70;99.90;;;;;;5062737;28;20484;-69